Time;durP1;ratioP1;P1;durP2;ratioP2;P2;SDS_P1;SDS_P2;PMS_P1;PMS_P2;Temp;Humidity;BMP_temperature;BMP_pressure;BME280_temperature;BME280_humidity;BME280_pressure;Samples;Min_cycle;Max_cycle;Signal;HPM_P1;HPM_P2
2023/12/24 00:01:10;;;;;;;2.70;0.80;;;;;;;10.19;100.00;99947.66;6091167;23;20034;-89
2023/12/24 00:03:36;;;;;;;3.47;0.65;;;;;;;10.11;100.00;99949.88;6089640;23;20417;-89
2023/12/24 00:06:02;;;;;;;3.22;0.90;;;;;;;10.15;100.00;99953.91;6091330;23;20010;-89
2023/12/24 00:08:28;;;;;;;3.80;0.68;;;;;;;10.18;100.00;99953.72;6091422;23;20374;-88
2023/12/24 00:10:55;;;;;;;1.85;0.43;;;;;;;10.18;100.00;99937.44;6090802;23;20079;-89
2023/12/24 00:13:21;;;;;;;2.65;0.30;;;;;;;10.30;100.00;99933.28;6091011;23;20003;-89
2023/12/24 00:15:46;;;;;;;1.70;0.55;;;;;;;10.29;100.00;99942.75;6090789;23;20017;-88
2023/12/24 00:18:11;;;;;;;1.27;0.20;;;;;;;10.21;100.00;99930.31;6089938;23;20006;-88
2023/12/24 00:20:37;;;;;;;1.85;0.38;;;;;;;10.24;100.00;99932.72;6091272;23;20012;-88
2023/12/24 00:23:06;;;;;;;1.55;0.43;;;;;;;10.29;100.00;99942.75;6091220;23;20007;-89
2023/12/24 00:25:32;;;;;;;2.15;0.60;;;;;;;10.38;100.00;99941.34;6091080;23;20006;-88
2023/12/24 00:27:58;;;;;;;2.70;1.23;;;;;;;10.37;100.00;99935.34;6091246;23;20440;-88
2023/12/24 00:30:26;;;;;;;1.80;0.55;;;;;;;10.34;100.00;99925.25;6091139;23;20090;-88
2023/12/24 00:32:53;;;;;;;1.55;0.30;;;;;;;10.34;100.00;99924.38;6089330;23;20014;-89
2023/12/24 00:35:19;;;;;;;1.13;0.10;;;;;;;10.41;100.00;99935.97;6091920;23;20007;-88
2023/12/24 00:37:44;;;;;;;2.20;0.50;;;;;;;10.39;100.00;99937.84;6092688;23;20053;-89
2023/12/24 00:40:10;;;;;;;1.08;0.30;;;;;;;10.40;100.00;99937.72;6092168;23;20384;-88
2023/12/24 00:42:35;;;;;;;1.00;0.22;;;;;;;10.44;100.00;99925.47;6090449;23;20014;-88
2023/12/24 00:45:01;;;;;;;0.85;0.32;;;;;;;10.41;100.00;99926.50;6091916;23;20019;-89
2023/12/24 00:47:26;;;;;;;0.90;0.15;;;;;;;10.46;100.00;99926.16;6090295;23;20006;-88
2023/12/24 00:49:51;;;;;;;0.85;0.40;;;;;;;10.44;100.00;99922.88;6091931;23;20085;-88
2023/12/24 00:52:17;;;;;;;1.48;0.25;;;;;;;10.52;100.00;99917.22;6092010;23;20038;-88
2023/12/24 00:54:42;;;;;;;4.13;0.73;;;;;;;10.49;100.00;99915.66;6091650;23;20006;-88
2023/12/24 00:57:07;;;;;;;2.53;0.45;;;;;;;10.53;100.00;99919.69;6092175;23;20006;-88
2023/12/24 00:59:33;;;;;;;0.75;0.13;;;;;;;10.54;100.00;99907.63;6091943;23;20006;-88
2023/12/24 01:01:58;;;;;;;1.67;0.15;;;;;;;10.54;100.00;99905.88;6091986;23;20025;-88
2023/12/24 01:04:23;;;;;;;0.73;0.20;;;;;;;10.50;100.00;99904.41;6092022;23;20081;-88
2023/12/24 01:06:49;;;;;;;0.75;0.20;;;;;;;10.53;100.00;99898.22;6092017;23;20002;-88
2023/12/24 01:09:14;;;;;;;1.15;0.77;;;;;;;10.54;100.00;99887.81;6092335;23;20061;-88
2023/12/24 01:11:42;;;;;;;1.13;0.15;;;;;;;10.61;100.00;99890.81;6092083;23;20034;-89
2023/12/24 01:14:08;;;;;;;1.05;0.15;;;;;;;10.66;100.00;99883.59;6090939;23;20064;-89
2023/12/24 01:16:39;;;;;;;1.17;0.20;;;;;;;10.59;100.00;99878.00;6091229;23;20015;-88
2023/12/24 01:19:04;;;;;;;0.00;0.00;;;;;;;10.58;100.00;99876.34;6092074;23;20003;-89
2023/12/24 01:21:29;;;;;;;0.88;0.10;;;;;;;10.64;100.00;99881.09;6092137;23;20014;-89
2023/12/24 01:23:55;;;;;;;1.08;0.00;;;;;;;10.64;100.00;99886.25;6092133;23;20010;-89
2023/12/24 01:26:20;;;;;;;0.03;0.03;;;;;;;10.66;100.00;99881.84;6091932;23;20003;-89
2023/12/24 01:28:45;;;;;;;2.60;0.10;;;;;;;10.69;100.00;99883.38;6092095;23;20006;-89
2023/12/24 01:31:11;;;;;;;3.38;0.10;;;;;;;10.70;100.00;99880.72;6092250;23;20007;-89
2023/12/24 01:33:36;;;;;;;0.90;0.30;;;;;;;10.64;100.00;99875.94;6091935;23;20021;-89
2023/12/24 01:36:02;;;;;;;2.78;0.08;;;;;;;10.75;100.00;99872.63;6092015;23;20008;-89
2023/12/24 01:38:27;;;;;;;0.85;0.13;;;;;;;10.75;100.00;99871.81;6092106;23;20089;-89
2023/12/24 01:40:52;;;;;;;0.88;0.10;;;;;;;10.73;100.00;99873.66;6091942;23;20006;-89
2023/12/24 01:43:18;;;;;;;1.70;0.22;;;;;;;10.80;100.00;99869.75;6091907;23;20090;-90
2023/12/24 01:45:43;;;;;;;3.88;0.70;;;;;;;10.79;100.00;99853.44;6091229;23;20013;-89
2023/12/24 01:48:09;;;;;;;1.58;0.22;;;;;;;10.85;100.00;99850.44;6092075;23;20007;-89
2023/12/24 01:50:36;;;;;;;4.47;0.63;;;;;;;10.86;100.00;99853.84;6092204;23;20310;-89
2023/12/24 01:53:02;;;;;;;2.40;0.10;;;;;;;10.88;100.00;99847.66;6092150;23;19998;-89
2023/12/24 01:55:28;;;;;;;2.03;0.30;;;;;;;10.90;100.00;99860.47;6091750;23;20009;-89
2023/12/24 01:57:53;;;;;;;4.28;0.28;;;;;;;10.89;100.00;99848.47;6092359;23;20006;-89
2023/12/24 02:00:19;;;;;;;5.05;0.55;;;;;;;10.92;100.00;99853.41;6092290;23;20314;-90
2023/12/24 02:02:45;;;;;;;1.85;0.20;;;;;;;11.00;100.00;99839.97;6092253;23;20038;-89
2023/12/24 02:05:11;;;;;;;5.20;0.60;;;;;;;11.04;100.00;99838.84;6092049;23;19998;-89
2023/12/24 02:07:37;;;;;;;4.40;1.75;;;;;;;10.98;100.00;99821.22;6092097;23;20006;-88
2023/12/24 02:10:03;;;;;;;5.05;0.55;;;;;;;10.95;100.00;99822.25;6092116;23;20006;-89
2023/12/24 02:12:28;;;;;;;2.42;0.35;;;;;;;11.02;100.00;99820.91;6091932;23;20402;-88
2023/12/24 02:14:54;;;;;;;8.02;0.50;;;;;;;10.97;100.00;99815.19;6091134;23;20006;-89
2023/12/24 02:17:22;;;;;;;0.75;0.20;;;;;;;11.01;100.00;99815.81;6091586;23;20072;-88
2023/12/24 02:19:47;;;;;;;4.38;0.35;;;;;;;11.01;100.00;99826.97;6092087;23;20014;-88
2023/12/24 02:22:13;;;;;;;3.22;0.35;;;;;;;11.01;100.00;99828.75;6092077;23;20007;-88
2023/12/24 02:24:38;;;;;;;5.50;0.43;;;;;;;10.99;100.00;99828.84;6091938;23;20038;-88
2023/12/24 02:27:20;;;;;;;1.83;0.28;;;;;;;11.09;100.00;99837.59;6092007;23;20014;-88
2023/12/24 02:29:48;;;;;;;6.63;0.30;;;;;;;11.10;100.00;99841.84;6092019;23;20081;-88
2023/12/24 02:32:15;;;;;;;4.68;0.32;;;;;;;11.11;100.00;99833.16;6092235;23;20630;-89
2023/12/24 02:34:43;;;;;;;3.72;0.50;;;;;;;11.09;100.00;99849.69;6091935;23;20006;-88
2023/12/24 02:37:08;;;;;;;3.20;0.32;;;;;;;11.12;100.00;99832.22;6091942;23;20006;-88
2023/12/24 02:39:41;;;;;;;3.88;0.35;;;;;;;11.13;100.00;99857.13;6090766;23;20064;-89
2023/12/24 02:42:07;;;;;;;3.10;0.30;;;;;;;11.25;100.00;99844.28;6091894;23;20034;-89
2023/12/24 02:44:36;;;;;;;8.90;0.40;;;;;;;11.18;100.00;99843.88;6090978;23;20456;-88
2023/12/24 02:47:01;;;;;;;4.82;0.68;;;;;;;11.18;100.00;99838.72;6092080;23;20056;-89
2023/12/24 02:49:26;;;;;;;3.03;0.50;;;;;;;11.26;100.00;99851.09;6091962;23;20074;-91
2023/12/24 02:51:52;;;;;;;4.60;0.50;;;;;;;11.21;100.00;99835.09;6091875;23;20003;-89
2023/12/24 02:54:17;;;;;;;1.38;0.30;;;;;;;11.22;100.00;99826.44;6092178;23;20460;-90
2023/12/24 02:56:42;;;;;;;5.70;0.40;;;;;;;11.25;100.00;99836.53;6091645;23;20330;-89
2023/12/24 02:59:08;;;;;;;4.53;0.47;;;;;;;11.31;100.00;99838.69;6091327;23;20061;-88
2023/12/24 03:01:33;;;;;;;7.38;0.60;;;;;;;11.27;100.00;99847.59;6091756;23;20421;-88
2023/12/24 03:03:59;;;;;;;6.20;0.73;;;;;;;11.22;100.00;99837.59;6091965;23;20314;-88
2023/12/24 03:06:24;;;;;;;3.72;0.45;;;;;;;11.29;100.00;99845.72;6092187;23;20095;-89
2023/12/24 03:08:49;;;;;;;2.50;0.43;;;;;;;11.30;100.00;99835.28;6091710;23;20425;-88
2023/12/24 03:11:15;;;;;;;3.28;0.35;;;;;;;11.29;100.00;99835.38;6092250;23;20002;-89
2023/12/24 03:13:40;;;;;;;4.22;0.52;;;;;;;11.26;100.00;99827.84;6091859;23;20014;-89
2023/12/24 03:16:06;;;;;;;11.52;1.02;;;;;;;11.29;100.00;99830.22;6090003;23;20068;-88
2023/12/24 03:18:31;;;;;;;6.35;0.50;;;;;;;11.26;100.00;99833.00;6091685;23;20500;-88
2023/12/24 03:20:57;;;;;;;5.72;0.80;;;;;;;11.30;100.00;99837.03;6090200;23;20030;-88
2023/12/24 03:23:22;;;;;;;7.03;0.90;;;;;;;11.36;100.00;99828.84;6091553;23;20018;-89
2023/12/24 03:25:48;;;;;;;18.92;1.38;;;;;;;11.34;100.00;99844.47;6091850;23;20003;-89
2023/12/24 03:28:13;;;;;;;6.07;0.50;;;;;;;11.35;100.00;99829.78;6090330;23;20003;-89
2023/12/24 03:30:39;;;;;;;7.22;1.00;;;;;;;11.34;100.00;99843.66;6091719;23;20077;-89
2023/12/24 03:33:04;;;;;;;6.18;0.82;;;;;;;11.38;100.00;99847.66;6090202;23;20006;-89
2023/12/24 03:35:29;;;;;;;5.90;1.17;;;;;;;11.32;100.00;99824.84;6091389;23;20002;-89
2023/12/24 03:37:55;;;;;;;6.45;0.50;;;;;;;11.39;100.00;99839.00;6090296;23;20373;-90
2023/12/24 03:40:20;;;;;;;4.82;0.93;;;;;;;11.37;100.00;99838.28;6091854;23;20438;-89
2023/12/24 03:42:45;;;;;;;7.95;0.75;;;;;;;11.41;100.00;99829.38;6091529;23;20029;-89
2023/12/24 03:45:11;;;;;;;3.97;0.70;;;;;;;11.42;100.00;99846.53;6090645;23;20010;-89
2023/12/24 03:47:36;;;;;;;6.80;1.00;;;;;;;11.44;100.00;99823.16;6092248;23;20052;-89
2023/12/24 03:50:02;;;;;;;5.65;0.98;;;;;;;11.40;100.00;99840.63;6091659;23;20445;-89
2023/12/24 03:52:28;;;;;;;6.82;0.60;;;;;;;11.43;100.00;99819.72;6091593;23;20039;-89
2023/12/24 03:54:53;;;;;;;5.47;1.23;;;;;;;11.41;100.00;99833.69;6091613;23;20002;-89
2023/12/24 03:57:18;;;;;;;4.63;0.75;;;;;;;11.45;100.00;99835.13;6091673;23;20337;-88
2023/12/24 03:59:44;;;;;;;6.45;0.55;;;;;;;11.45;100.00;99841.13;6091712;23;20022;-89
2023/12/24 04:02:09;;;;;;;7.22;0.80;;;;;;;11.47;100.00;99844.44;6091463;23;20003;-89
2023/12/24 04:04:34;;;;;;;9.40;0.95;;;;;;;11.29;100.00;99830.22;6091547;23;19998;-88
2023/12/24 04:07:00;;;;;;;11.57;1.42;;;;;;;11.37;100.00;99848.59;6091304;23;20007;-89
2023/12/24 04:09:26;;;;;;;3.05;0.73;;;;;;;11.43;100.00;99849.91;6090993;23;20007;-88
2023/12/24 04:11:52;;;;;;;5.03;0.70;;;;;;;11.49;100.00;99844.34;6091583;23;20327;-89
2023/12/24 04:14:18;;;;;;;8.63;1.25;;;;;;;11.49;100.00;99827.06;6091393;23;20003;-89
2023/12/24 04:16:43;;;;;;;5.55;0.75;;;;;;;11.45;100.00;99845.47;6091327;23;20021;-88
2023/12/24 04:19:08;;;;;;;6.30;1.20;;;;;;;11.47;100.00;99844.44;6091526;23;20060;-88
2023/12/24 04:21:34;;;;;;;6.68;1.48;;;;;;;11.47;100.00;99844.44;6091042;23;20030;-89
2023/12/24 04:24:00;;;;;;;12.52;1.75;;;;;;;11.49;100.00;99834.81;6091194;23;20013;-89
2023/12/24 04:26:25;;;;;;;6.35;1.20;;;;;;;11.48;100.00;99830.56;6091180;23;19998;-88
2023/12/24 04:28:51;;;;;;;14.43;1.60;;;;;;;11.50;100.00;99818.38;6091399;23;20069;-88
2023/12/24 04:31:17;;;;;;;4.80;0.82;;;;;;;11.47;100.00;99821.19;6091249;23;20018;-89
2023/12/24 04:33:42;;;;;;;7.47;1.00;;;;;;;11.52;100.00;99826.84;6091297;23;19998;-89
2023/12/24 04:36:08;;;;;;;8.00;1.05;;;;;;;11.55;100.00;99824.03;6090921;23;20002;-89
2023/12/24 04:38:33;;;;;;;7.50;1.25;;;;;;;11.59;100.00;99827.22;6090706;23;20006;-89
2023/12/24 04:40:59;;;;;;;4.65;1.00;;;;;;;11.57;100.00;99832.50;6091175;23;20330;-89
2023/12/24 04:43:25;;;;;;;12.35;1.60;;;;;;;11.52;100.00;99823.44;6091226;23;20338;-88
2023/12/24 04:45:50;;;;;;;7.13;1.52;;;;;;;11.54;100.00;99819.81;6089657;23;20010;-89
2023/12/24 04:48:16;;;;;;;8.07;1.30;;;;;;;11.62;100.00;99810.69;6091098;23;20013;-89
2023/12/24 04:50:41;;;;;;;14.38;1.52;;;;;;;11.55;100.00;99811.09;6091207;23;20006;-89
2023/12/24 04:53:06;;;;;;;9.88;1.50;;;;;;;11.54;100.00;99814.63;6089587;23;20013;-88
2023/12/24 04:55:32;;;;;;;7.95;1.20;;;;;;;11.62;100.00;99811.50;6090932;23;20002;-88
2023/12/24 04:57:57;;;;;;;8.32;1.05;;;;;;;11.58;100.00;99835.91;6091041;23;20413;-89
2023/12/24 05:00:23;;;;;;;12.05;1.50;;;;;;;11.50;100.00;99823.53;6091365;23;20003;-89
2023/12/24 05:02:48;;;;;;;6.20;1.00;;;;;;;11.52;100.00;99807.94;6090949;23;20018;-89
2023/12/24 05:05:14;;;;;;;11.95;1.38;;;;;;;11.54;100.00;99824.16;6090794;23;20030;-88
2023/12/24 05:07:39;;;;;;;9.80;1.25;;;;;;;11.61;100.00;99814.19;6090968;23;20464;-89
2023/12/24 05:10:06;;;;;;;10.68;1.23;;;;;;;11.62;100.00;99815.84;6090284;23;20002;-89
2023/12/24 05:12:33;;;;;;;9.10;1.00;;;;;;;11.63;100.00;99809.72;6089411;23;20084;-89
2023/12/24 05:15:01;;;;;;;6.50;1.05;;;;;;;11.57;100.00;99808.44;6090071;23;20061;-88
2023/12/24 05:17:26;;;;;;;6.63;2.05;;;;;;;11.59;100.00;99806.56;6089219;23;20009;-89
2023/12/24 05:19:51;;;;;;;4.07;0.93;;;;;;;11.57;100.00;99804.06;6091031;23;19999;-88
2023/12/24 05:22:17;;;;;;;4.97;0.80;;;;;;;11.60;100.00;99815.13;6092393;23;20093;-88
2023/12/24 05:24:42;;;;;;;2.97;0.73;;;;;;;11.65;100.00;99800.13;6092375;23;20030;-89
2023/12/24 05:27:07;;;;;;;6.75;0.63;;;;;;;11.55;100.00;99811.09;6092838;23;19998;-88
2023/12/24 05:29:33;;;;;;;4.60;0.50;;;;;;;11.55;100.00;99803.34;6092153;23;20009;-88
2023/12/24 05:31:58;;;;;;;4.55;0.60;;;;;;;11.60;100.00;99797.03;6090610;23;20002;-89
2023/12/24 05:34:23;;;;;;;2.53;0.47;;;;;;;11.55;100.00;99812.88;6092239;23;20077;-89
2023/12/24 05:36:49;;;;;;;1.85;0.50;;;;;;;11.56;100.00;99807.59;6092315;23;20091;-88
2023/12/24 05:39:14;;;;;;;1.40;0.25;;;;;;;11.61;100.00;99803.84;6091157;23;20002;-89
2023/12/24 05:41:44;;;;;;;3.97;0.65;;;;;;;11.69;100.00;99793.78;6091998;23;20030;-89
2023/12/24 05:44:09;;;;;;;2.05;0.47;;;;;;;11.57;100.00;99793.72;6092083;23;20064;-89
2023/12/24 05:46:34;;;;;;;3.17;0.60;;;;;;;11.60;100.00;99795.28;6092189;23;20010;-89
2023/12/24 05:49:00;;;;;;;1.17;0.20;;;;;;;11.64;100.00;99788.97;6090636;23;20011;-89
2023/12/24 05:51:25;;;;;;;2.78;0.47;;;;;;;11.61;100.00;99798.69;6092336;23;20003;-89
2023/12/24 05:53:50;;;;;;;2.20;0.40;;;;;;;11.65;100.00;99788.00;6092012;23;20006;-88
2023/12/24 05:56:16;;;;;;;2.47;0.40;;;;;;;11.65;100.00;99779.44;6090536;23;20037;-90
2023/12/24 05:58:41;;;;;;;2.15;0.30;;;;;;;11.65;100.00;99784.59;6090910;23;20038;-89
2023/12/24 06:01:06;;;;;;;3.15;0.43;;;;;;;11.63;100.00;99799.41;6092312;23;20413;-89
2023/12/24 06:03:32;;;;;;;3.45;0.30;;;;;;;11.68;100.00;99786.97;6092067;23;20487;-89
2023/12/24 06:05:57;;;;;;;3.65;0.63;;;;;;;11.56;100.00;99784.34;6092337;23;20002;-89
2023/12/24 06:08:23;;;;;;;5.18;0.30;;;;;;;11.62;100.00;99788.25;6091787;23;20002;-89
2023/12/24 06:10:48;;;;;;;1.55;0.35;;;;;;;11.55;100.00;99780.09;6091891;23;20006;-89
2023/12/24 06:13:14;;;;;;;2.08;0.40;;;;;;;11.54;100.00;99775.88;6091445;23;20303;-89
2023/12/24 06:15:39;;;;;;;1.85;0.65;;;;;;;11.59;100.00;99783.28;6091908;23;20007;-89
2023/12/24 06:18:05;;;;;;;4.60;0.40;;;;;;;11.60;100.00;99776.34;6092295;23;20006;-89
2023/12/24 06:20:32;;;;;;;5.13;0.38;;;;;;;11.67;100.00;99785.31;6092077;23;20417;-90
2023/12/24 06:22:58;;;;;;;2.22;0.47;;;;;;;11.67;100.00;99787.91;6092263;23;20003;-89
2023/12/24 06:25:23;;;;;;;5.78;0.70;;;;;;;11.61;100.00;99772.81;6091875;23;19999;-89
2023/12/24 06:27:49;;;;;;;3.67;0.38;;;;;;;11.57;100.00;99765.31;6092045;23;20014;-89
2023/12/24 06:30:14;;;;;;;1.65;0.55;;;;;;;11.65;100.00;99763.91;6092004;23;20002;-89
2023/12/24 06:32:43;;;;;;;5.82;0.88;;;;;;;11.66;100.00;99765.59;6091268;23;20325;-89
2023/12/24 06:35:09;;;;;;;2.92;0.43;;;;;;;11.63;100.00;99758.03;6092148;23;20002;-89
2023/12/24 06:37:35;;;;;;;6.40;0.68;;;;;;;11.62;100.00;99774.50;6092090;23;20045;-89
2023/12/24 06:40:00;;;;;;;3.83;0.50;;;;;;;11.53;100.00;99775.97;6092209;23;20010;-89
2023/12/24 06:42:26;;;;;;;10.13;0.95;;;;;;;11.55;100.00;99769.75;6092168;23;20414;-89
2023/12/24 06:44:51;;;;;;;4.65;0.65;;;;;;;11.64;100.00;99783.78;6091913;23;20337;-89
2023/12/24 06:47:16;;;;;;;7.32;0.73;;;;;;;11.61;100.00;99778.00;6092048;23;20009;-88
2023/12/24 06:49:44;;;;;;;1.58;0.45;;;;;;;11.56;100.00;99771.41;6090320;23;20014;-89
2023/12/24 06:52:10;;;;;;;9.27;0.88;;;;;;;11.55;100.00;99781.84;6090442;23;20460;-89
2023/12/24 06:54:36;;;;;;;2.25;0.60;;;;;;;11.54;100.00;99775.06;6091983;23;20002;-89
2023/12/24 06:57:02;;;;;;;5.88;1.38;;;;;;;11.59;100.00;99769.56;6092184;23;20595;-89
2023/12/24 06:59:28;;;;;;;5.38;0.68;;;;;;;11.64;100.00;99763.09;6091681;23;20009;-90
2023/12/24 07:01:53;;;;;;;3.15;0.77;;;;;;;11.56;100.00;99770.59;6091884;23;20011;-89
2023/12/24 07:04:18;;;;;;;4.97;0.85;;;;;;;11.57;100.00;99767.06;6091890;23;20089;-89
2023/12/24 07:06:44;;;;;;;3.20;0.45;;;;;;;11.60;100.00;99755.69;6091938;23;20003;-90
2023/12/24 07:09:09;;;;;;;7.90;0.63;;;;;;;11.54;100.00;99747.44;6091978;23;20058;-89
2023/12/24 07:11:34;;;;;;;1.27;0.35;;;;;;;11.49;100.00;99734.03;6091900;23;20053;-90
2023/12/24 07:13:59;;;;;;;6.20;0.85;;;;;;;11.57;100.00;99746.41;6090571;23;20006;-89
2023/12/24 07:16:25;;;;;;;1.40;0.32;;;;;;;11.49;100.00;99759.06;6091805;23;20010;-89
2023/12/24 07:18:50;;;;;;;5.90;0.55;;;;;;;11.51;100.00;99763.19;6092413;23;20017;-89
2023/12/24 07:21:16;;;;;;;4.45;0.52;;;;;;;11.44;100.00;99756.81;6091774;23;20376;-89
2023/12/24 07:23:42;;;;;;;2.50;0.47;;;;;;;11.42;100.00;99750.91;6091808;23;20013;-89
2023/12/24 07:26:07;;;;;;;4.60;0.60;;;;;;;11.45;100.00;99739.53;6091905;23;20009;-89
2023/12/24 07:28:32;;;;;;;4.70;0.70;;;;;;;11.47;100.00;99720.41;6091310;23;20007;-89
2023/12/24 07:30:58;;;;;;;8.02;0.70;;;;;;;11.54;100.00;99723.38;6091956;23;20334;-89
2023/12/24 07:33:24;;;;;;;8.82;0.70;;;;;;;11.45;100.00;99732.59;6091861;23;19998;-89
2023/12/24 07:35:49;;;;;;;3.47;0.57;;;;;;;11.41;100.00;99720.84;6091731;23;20002;-90
2023/12/24 07:38:14;;;;;;;2.50;0.30;;;;;;;11.45;100.00;99711.94;6091739;23;20006;-89
2023/12/24 07:40:40;;;;;;;4.70;0.50;;;;;;;11.47;100.00;99709.25;6092054;23;20006;-89
2023/12/24 07:43:05;;;;;;;6.75;0.85;;;;;;;11.49;100.00;99718.53;6091702;23;20013;-89
2023/12/24 07:45:30;;;;;;;4.30;0.70;;;;;;;11.42;100.00;99721.66;6091953;23;20002;-89
2023/12/24 07:47:56;;;;;;;5.93;0.50;;;;;;;11.35;100.00;99713.53;6090194;23;20108;-89
2023/12/24 07:50:21;;;;;;;5.22;0.43;;;;;;;11.37;100.00;99718.59;6091875;23;20006;-90
2023/12/24 07:52:46;;;;;;;5.10;0.52;;;;;;;11.33;100.00;99728.31;6091678;23;20430;-90
2023/12/24 07:55:12;;;;;;;9.15;0.60;;;;;;;11.35;100.00;99735.00;6091608;23;20003;-89
2023/12/24 07:57:37;;;;;;;5.40;0.50;;;;;;;11.35;100.00;99739.38;6091728;23;20002;-89
2023/12/24 08:00:06;;;;;;;4.18;0.65;;;;;;;11.32;100.00;99737.00;6090627;23;20028;-89
2023/12/24 08:02:32;;;;;;;5.93;0.60;;;;;;;11.31;100.00;99718.09;6090934;23;20003;-89
2023/12/24 08:04:57;;;;;;;4.03;0.73;;;;;;;11.31;100.00;99725.00;6091315;23;20010;-89
2023/12/24 08:07:23;;;;;;;3.38;0.60;;;;;;;11.29;100.00;99732.03;6091773;23;20082;-90
2023/12/24 08:09:49;;;;;;;5.38;0.68;;;;;;;11.29;100.00;99732.03;6091669;23;20341;-90
2023/12/24 08:12:15;;;;;;;1.70;0.32;;;;;;;11.33;100.00;99720.56;6091478;23;20073;-89
2023/12/24 08:14:40;;;;;;;5.32;0.47;;;;;;;11.39;100.00;99722.72;6091442;23;20014;-89
2023/12/24 08:17:06;;;;;;;5.72;0.63;;;;;;;11.36;100.00;99722.91;6090069;23;20018;-89
2023/12/24 08:19:31;;;;;;;4.22;0.35;;;;;;;11.37;100.00;99724.59;6091603;23;20081;-89
2023/12/24 08:21:56;;;;;;;3.97;0.60;;;;;;;11.36;100.00;99720.34;6089818;23;20003;-89
2023/12/24 08:24:22;;;;;;;4.45;0.40;;;;;;;11.32;100.00;99718.94;6089697;23;20448;-90
2023/12/24 08:26:47;;;;;;;5.45;0.82;;;;;;;11.32;100.00;99718.94;6091590;23;20069;-89
2023/12/24 08:29:13;;;;;;;4.07;0.82;;;;;;;11.31;100.00;99707.78;6091353;23;20003;-89
2023/12/24 08:31:38;;;;;;;4.07;0.50;;;;;;;11.36;100.00;99712.59;6091581;23;20656;-89
2023/12/24 08:34:03;;;;;;;1.20;0.22;;;;;;;11.37;100.00;99710.84;6091511;23;20053;-89
2023/12/24 08:36:29;;;;;;;1.38;0.35;;;;;;;11.33;100.00;99703.28;6092883;23;20052;-89
2023/12/24 08:38:54;;;;;;;5.50;0.50;;;;;;;11.37;100.00;99709.09;6091418;23;20079;-89
2023/12/24 08:41:19;;;;;;;2.17;0.25;;;;;;;11.40;100.00;99714.03;6091389;23;20690;-89
2023/12/24 08:43:45;;;;;;;5.93;0.55;;;;;;;11.43;100.00;99711.22;6089574;23;20013;-89
2023/12/24 08:46:10;;;;;;;8.02;0.52;;;;;;;11.40;100.00;99719.19;6091360;23;20318;-89
2023/12/24 08:48:36;;;;;;;1.52;0.32;;;;;;;11.46;100.00;99717.91;6091603;23;20002;-89
2023/12/24 08:51:01;;;;;;;5.07;0.40;;;;;;;11.42;100.00;99727.66;6091349;23;20003;-90
2023/12/24 08:53:27;;;;;;;2.80;0.40;;;;;;;11.44;100.00;99715.47;6089663;23;20003;-89
2023/12/24 08:55:52;;;;;;;35.15;1.05;;;;;;;11.52;100.00;99720.06;6091589;23;20054;-89
2023/12/24 08:58:18;;;;;;;7.30;0.60;;;;;;;11.45;100.00;99739.53;6092132;23;20003;-89
2023/12/24 09:00:43;;;;;;;1.83;0.57;;;;;;;11.54;100.00;99741.47;6092423;23;20006;-90
2023/12/24 09:03:09;;;;;;;3.05;0.45;;;;;;;11.55;100.00;99730.97;6092525;23;20007;-89
2023/12/24 09:05:34;;;;;;;1.98;0.45;;;;;;;11.52;100.00;99732.97;6092145;23;20013;-89
2023/12/24 09:08:00;;;;;;;0.95;0.50;;;;;;;11.56;100.00;99735.25;6092074;23;20056;-89
2023/12/24 09:10:25;;;;;;;2.20;0.57;;;;;;;11.67;100.00;99742.19;6092404;23;20013;-89
2023/12/24 09:12:50;;;;;;;0.88;0.30;;;;;;;11.62;100.00;99733.13;6092309;23;20434;-89
2023/12/24 09:15:15;;;;;;;2.08;0.30;;;;;;;11.63;100.00;99740.78;6090341;23;20439;-90
2023/12/24 09:17:41;;;;;;;1.13;0.20;;;;;;;11.66;100.00;99729.41;6090789;23;20318;-90
2023/12/24 09:20:07;;;;;;;1.42;0.30;;;;;;;11.66;100.00;99719.06;6090938;23;20009;-90
2023/12/24 09:22:32;;;;;;;0.95;0.13;;;;;;;11.67;100.00;99725.88;6092200;23;20348;-89
2023/12/24 09:24:58;;;;;;;3.20;0.17;;;;;;;11.67;100.00;99720.69;6092084;23;20030;-90
2023/12/24 09:27:23;;;;;;;5.93;0.30;;;;;;;11.67;100.00;99716.34;6092188;23;20373;-89
2023/12/24 09:29:48;;;;;;;1.17;0.20;;;;;;;11.74;100.00;99717.53;6091530;23;20078;-89
2023/12/24 09:32:14;;;;;;;0.93;0.40;;;;;;;11.78;100.00;99718.16;6090599;23;20003;-90
2023/12/24 09:34:39;;;;;;;2.72;0.20;;;;;;;11.75;100.00;99713.19;6092430;23;20002;-90
2023/12/24 09:37:05;;;;;;;3.70;0.25;;;;;;;11.81;100.00;99733.44;6092076;23;19998;-90
2023/12/24 09:39:30;;;;;;;0.73;0.20;;;;;;;11.70;100.00;99735.97;6090670;23;19999;-90
2023/12/24 09:41:57;;;;;;;3.33;0.40;;;;;;;11.79;100.00;99727.56;6090952;23;20025;-89
2023/12/24 09:44:23;;;;;;;3.20;0.60;;;;;;;11.84;100.00;99730.63;6092372;23;20430;-89
2023/12/24 09:46:48;;;;;;;4.00;0.70;;;;;;;11.88;100.00;99723.50;6092156;23;20009;-88
2023/12/24 09:49:13;;;;;;;2.42;0.60;;;;;;;11.86;100.00;99726.16;6092227;23;20006;-91
2023/12/24 09:51:42;;;;;;;2.72;0.70;;;;;;;11.99;100.00;99726.09;6090647;23;20018;-90
2023/12/24 09:54:07;;;;;;;3.47;0.95;;;;;;;11.93;100.00;99729.16;6090125;23;20010;-90
2023/12/24 09:56:33;;;;;;;3.20;1.25;;;;;;;11.88;100.00;99721.75;6091846;23;20011;-90
2023/12/24 09:58:58;;;;;;;3.47;1.13;;;;;;;11.92;100.00;99717.97;6088844;23;20085;-89
2023/12/24 10:01:23;;;;;;;4.78;0.98;;;;;;;11.90;100.00;99726.78;6088715;23;20003;-91
2023/12/24 10:03:49;;;;;;;2.20;0.63;;;;;;;11.93;100.00;99719.63;6089435;23;20025;-92
2023/12/24 10:06:14;;;;;;;3.33;0.52;;;;;;;11.85;100.00;99718.50;6092148;23;20007;-92
2023/12/24 10:08:40;;;;;;;4.05;0.68;;;;;;;11.96;100.00;99705.66;6091765;23;20009;-91
2023/12/24 10:11:16;;;;;;;2.35;0.50;;;;;;;11.96;100.00;99700.47;6090678;23;20003;-91
2023/12/24 10:13:46;;;;;;;0.98;0.28;;;;;;;11.96;100.00;99690.94;6090759;23;20121;-90
2023/12/24 10:16:12;;;;;;;3.15;0.68;;;;;;;11.90;100.00;99701.75;6091737;23;20013;-91
2023/12/24 10:18:48;;;;;;;3.67;0.68;;;;;;;11.93;100.00;99711.88;6090775;23;20042;-92
2023/12/24 10:21:13;;;;;;;2.55;0.68;;;;;;;11.88;100.00;99708.00;6091971;23;20026;-90
2023/12/24 10:23:39;;;;;;;1.00;0.35;;;;;;;11.97;100.00;99708.13;6091944;23;20048;-92
2023/12/24 10:26:06;;;;;;;2.30;0.40;;;;;;;12.03;100.00;99721.53;6090651;23;20002;-90
2023/12/24 10:28:33;;;;;;;2.55;0.35;;;;;;;12.12;100.00;99719.09;6090646;23;20007;-90
2023/12/24 10:31:09;;;;;;;1.88;0.68;;;;;;;12.13;100.00;99725.06;6091034;23;20011;-92
2023/12/24 10:33:38;;;;;;;4.55;0.98;;;;;;;12.10;100.00;99717.53;6091165;23;20006;-89
2023/12/24 10:36:04;;;;;;;2.80;0.50;;;;;;;12.16;100.00;99719.66;6090473;23;20013;-90
2023/12/24 10:38:30;;;;;;;4.40;0.43;;;;;;;12.13;100.00;99723.31;6091752;23;20003;-90
2023/12/24 10:40:56;;;;;;;7.43;1.00;;;;;;;12.23;100.00;99723.44;6090804;23;20002;-89
2023/12/24 10:43:21;;;;;;;4.15;0.57;;;;;;;12.17;100.00;99718.75;6091369;23;20014;-90
2023/12/24 10:45:47;;;;;;;3.30;0.90;;;;;;;12.17;100.00;99700.63;6091398;23;20034;-90
2023/12/24 10:48:12;;;;;;;1.67;0.43;;;;;;;12.25;100.00;99700.84;6091916;23;20414;-90
2023/12/24 10:50:38;;;;;;;2.00;0.52;;;;;;;12.23;100.00;99702.72;6092137;23;20417;-92
2023/12/24 10:53:03;;;;;;;3.78;0.68;;;;;;;12.17;100.00;99716.97;6090969;23;20334;-91
2023/12/24 10:55:31;;;;;;;2.85;0.40;;;;;;;12.17;100.00;99710.97;6089352;23;19998;-91
2023/12/24 10:58:21;;;;;;;3.30;1.35;;;;;;;12.31;100.00;99709.91;6088743;23;20046;-91
2023/12/24 11:00:47;;;;;;;1.02;0.45;;;;;;;12.29;100.00;99704.88;6090656;23;20014;-90
2023/12/24 11:03:48;;;;;;;2.70;0.38;;;;;;;12.30;100.00;99703.91;6091547;23;20011;-89
2023/12/24 11:06:38;;;;;;;3.83;0.40;;;;;;;12.31;100.00;99700.38;6091858;23;20026;-89
2023/12/24 11:09:15;;;;;;;0.93;0.40;;;;;;;12.31;100.00;99707.31;6090981;23;20007;-91
2023/12/24 11:11:51;;;;;;;4.63;0.57;;;;;;;12.35;100.00;99706.97;6090016;23;20014;-90
2023/12/24 11:14:45;;;;;;;4.55;0.57;;;;;;;12.19;100.00;99696.13;6091508;23;20002;-89
2023/12/24 11:17:33;;;;;;;3.85;0.50;;;;;;;12.15;100.00;99690.38;6089405;23;20038;-90
2023/12/24 11:20:18;;;;;;;4.13;0.80;;;;;;;12.23;100.00;99694.97;6100460;23;20042;-91